sensor_id;sensor_type;location;lat;lon;timestamp;temperature;humidity
26063;DHT22;13837;48.562;12.108;2023-09-19T00:00:56;15.60;99.90
26063;DHT22;13837;48.562;12.108;2023-09-19T00:03:23;15.60;99.90
26063;DHT22;13837;48.562;12.108;2023-09-19T00:05:51;15.60;99.90
26063;DHT22;13837;48.562;12.108;2023-09-19T00:08:17;15.60;99.90
26063;DHT22;13837;48.562;12.108;2023-09-19T00:10:48;15.60;99.90
26063;DHT22;13837;48.562;12.108;2023-09-19T00:13:14;15.60;99.90
26063;DHT22;13837;48.562;12.108;2023-09-19T00:15:42;15.60;99.90
26063;DHT22;13837;48.562;12.108;2023-09-19T00:18:09;15.50;99.90
26063;DHT22;13837;48.562;12.108;2023-09-19T00:20:38;15.50;99.90
26063;DHT22;13837;48.562;12.108;2023-09-19T00:23:05;15.50;99.90
26063;DHT22;13837;48.562;12.108;2023-09-19T00:25:31;15.50;99.90
26063;DHT22;13837;48.562;12.108;2023-09-19T00:27:58;15.50;99.90
26063;DHT22;13837;48.562;12.108;2023-09-19T00:30:24;15.50;99.90
26063;DHT22;13837;48.562;12.108;2023-09-19T00:32:53;15.50;99.90
26063;DHT22;13837;48.562;12.108;2023-09-19T00:35:23;15.50;99.90
26063;DHT22;13837;48.562;12.108;2023-09-19T00:37:50;15.50;99.90
26063;DHT22;13837;48.562;12.108;2023-09-19T00:40:17;15.40;99.90
26063;DHT22;13837;48.562;12.108;2023-09-19T00:42:45;15.40;99.90
26063;DHT22;13837;48.562;12.108;2023-09-19T00:45:13;15.50;99.90
26063;DHT22;13837;48.562;12.108;2023-09-19T00:47:40;15.40;99.90
26063;DHT22;13837;48.562;12.108;2023-09-19T00:50:08;15.40;99.90
26063;DHT22;13837;48.562;12.108;2023-09-19T00:52:38;15.40;99.90
26063;DHT22;13837;48.562;12.108;2023-09-19T00:55:09;15.40;99.90
26063;DHT22;13837;48.562;12.108;2023-09-19T00:57:37;15.40;99.90
26063;DHT22;13837;48.562;12.108;2023-09-19T01:00:08;15.40;99.90
26063;DHT22;13837;48.562;12.108;2023-09-19T01:02:44;15.40;99.90
26063;DHT22;13837;48.562;12.108;2023-09-19T01:05:12;15.30;99.90
26063;DHT22;13837;48.562;12.108;2023-09-19T01:07:38;15.30;99.90
26063;DHT22;13837;48.562;12.108;2023-09-19T01:10:16;15.30;99.90
26063;DHT22;13837;48.562;12.108;2023-09-19T01:18:21;15.30;99.90
26063;DHT22;13837;48.562;12.108;2023-09-19T01:23:54;15.40;99.90
26063;DHT22;13837;48.562;12.108;2023-09-19T01:32:05;15.30;99.90
26063;DHT22;13837;48.562;12.108;2023-09-19T01:34:45;15.30;99.90
26063;DHT22;13837;48.562;12.108;2023-09-19T01:37:13;15.30;99.90
26063;DHT22;13837;48.562;12.108;2023-09-19T01:40:03;15.40;99.90
26063;DHT22;13837;48.562;12.108;2023-09-19T01:42:43;15.40;99.90
26063;DHT22;13837;48.562;12.108;2023-09-19T01:45:36;15.40;99.90
26063;DHT22;13837;48.562;12.108;2023-09-19T01:48:38;15.50;99.90
26063;DHT22;13837;48.562;12.108;2023-09-19T01:51:10;15.40;99.90
26063;DHT22;13837;48.562;12.108;2023-09-19T01:56:19;15.50;99.90
26063;DHT22;13837;48.562;12.108;2023-09-19T01:58:50;15.50;99.90
26063;DHT22;13837;48.562;12.108;2023-09-19T02:01:20;15.50;99.90
26063;DHT22;13837;48.562;12.108;2023-09-19T02:03:48;15.50;99.90
26063;DHT22;13837;48.562;12.108;2023-09-19T02:06:17;15.60;99.90
26063;DHT22;13837;48.562;12.108;2023-09-19T02:08:47;15.60;99.90
26063;DHT22;13837;48.562;12.108;2023-09-19T02:11:14;15.60;99.90
26063;DHT22;13837;48.562;12.108;2023-09-19T02:13:40;15.60;99.90
26063;DHT22;13837;48.562;12.108;2023-09-19T02:16:07;15.60;99.90
26063;DHT22;13837;48.562;12.108;2023-09-19T02:18:35;15.60;99.90
26063;DHT22;13837;48.562;12.108;2023-09-19T02:21:02;15.60;99.90
26063;DHT22;13837;48.562;12.108;2023-09-19T02:23:30;15.60;99.90
26063;DHT22;13837;48.562;12.108;2023-09-19T02:25:57;15.60;99.90
26063;DHT22;13837;48.562;12.108;2023-09-19T02:28:42;15.50;99.90
26063;DHT22;13837;48.562;12.108;2023-09-19T02:31:08;15.60;99.90
26063;DHT22;13837;48.562;12.108;2023-09-19T02:33:35;15.60;99.90
26063;DHT22;13837;48.562;12.108;2023-09-19T02:36:01;15.60;99.90
26063;DHT22;13837;48.562;12.108;2023-09-19T02:38:29;15.60;99.90
26063;DHT22;13837;48.562;12.108;2023-09-19T02:40:56;15.50;99.90
26063;DHT22;13837;48.562;12.108;2023-09-19T02:43:23;15.50;99.90
26063;DHT22;13837;48.562;12.108;2023-09-19T02:45:49;15.50;99.90
26063;DHT22;13837;48.562;12.108;2023-09-19T02:48:16;15.60;99.90
26063;DHT22;13837;48.562;12.108;2023-09-19T02:50:44;15.50;99.90
26063;DHT22;13837;48.562;12.108;2023-09-19T02:53:10;15.50;99.90
26063;DHT22;13837;48.562;12.108;2023-09-19T02:55:39;15.50;99.90
26063;DHT22;13837;48.562;12.108;2023-09-19T02:58:08;15.50;99.90
26063;DHT22;13837;48.562;12.108;2023-09-19T03:00:37;15.60;99.90
26063;DHT22;13837;48.562;12.108;2023-09-19T03:03:04;15.60;99.90
26063;DHT22;13837;48.562;12.108;2023-09-19T03:05:32;15.60;99.90
26063;DHT22;13837;48.562;12.108;2023-09-19T03:07:59;15.50;99.90
26063;DHT22;13837;48.562;12.108;2023-09-19T03:10:28;15.50;99.90
26063;DHT22;13837;48.562;12.108;2023-09-19T03:12:57;15.50;99.90
26063;DHT22;13837;48.562;12.108;2023-09-19T03:15:26;15.50;99.90
26063;DHT22;13837;48.562;12.108;2023-09-19T03:17:53;15.40;99.90
26063;DHT22;13837;48.562;12.108;2023-09-19T03:20:21;15.40;99.90
26063;DHT22;13837;48.562;12.108;2023-09-19T03:22:49;15.40;99.90
26063;DHT22;13837;48.562;12.108;2023-09-19T03:25:16;15.40;99.90
26063;DHT22;13837;48.562;12.108;2023-09-19T03:27:46;15.40;99.90
26063;DHT22;13837;48.562;12.108;2023-09-19T03:30:13;15.50;99.90
26063;DHT22;13837;48.562;12.108;2023-09-19T03:32:45;15.40;99.90
26063;DHT22;13837;48.562;12.108;2023-09-19T03:35:13;15.50;99.90
26063;DHT22;13837;48.562;12.108;2023-09-19T03:37:41;15.40;99.90
26063;DHT22;13837;48.562;12.108;2023-09-19T03:40:09;15.40;99.90
26063;DHT22;13837;48.562;12.108;2023-09-19T03:42:41;15.40;99.90
26063;DHT22;13837;48.562;12.108;2023-09-19T03:45:10;15.40;99.90
26063;DHT22;13837;48.562;12.108;2023-09-19T03:47:43;15.30;99.90
26063;DHT22;13837;48.562;12.108;2023-09-19T03:50:10;15.30;99.90
26063;DHT22;13837;48.562;12.108;2023-09-19T03:52:45;15.30;99.90
26063;DHT22;13837;48.562;12.108;2023-09-19T03:55:11;15.20;99.90
26063;DHT22;13837;48.562;12.108;2023-09-19T03:57:38;15.30;99.90
26063;DHT22;13837;48.562;12.108;2023-09-19T04:00:09;15.30;99.90
26063;DHT22;13837;48.562;12.108;2023-09-19T04:02:41;15.30;99.90
26063;DHT22;13837;48.562;12.108;2023-09-19T04:05:07;15.20;99.90
26063;DHT22;13837;48.562;12.108;2023-09-19T04:07:34;15.20;99.90
26063;DHT22;13837;48.562;12.108;2023-09-19T04:10:00;15.20;99.90
26063;DHT22;13837;48.562;12.108;2023-09-19T04:12:27;15.20;99.90
26063;DHT22;13837;48.562;12.108;2023-09-19T04:14:53;15.20;99.90
26063;DHT22;13837;48.562;12.108;2023-09-19T04:17:19;15.30;99.90
26063;DHT22;13837;48.562;12.108;2023-09-19T04:19:46;15.30;99.90
26063;DHT22;13837;48.562;12.108;2023-09-19T04:22:12;15.30;99.90
26063;DHT22;13837;48.562;12.108;2023-09-19T04:24:39;15.30;99.90
26063;DHT22;13837;48.562;12.108;2023-09-19T04:27:05;15.30;99.90
26063;DHT22;13837;48.562;12.108;2023-09-19T04:29:33;15.40;99.90
26063;DHT22;13837;48.562;12.108;2023-09-19T04:31:59;15.30;99.90
26063;DHT22;13837;48.562;12.108;2023-09-19T04:34:25;15.40;99.90
26063;DHT22;13837;48.562;12.108;2023-09-19T04:36:52;15.50;99.90
26063;DHT22;13837;48.562;12.108;2023-09-19T04:39:20;15.60;99.90
26063;DHT22;13837;48.562;12.108;2023-09-19T04:41:46;15.60;99.90
26063;DHT22;13837;48.562;12.108;2023-09-19T04:44:13;15.60;99.90
26063;DHT22;13837;48.562;12.108;2023-09-19T04:46:39;15.70;99.90
26063;DHT22;13837;48.562;12.108;2023-09-19T04:49:05;15.70;99.90
26063;DHT22;13837;48.562;12.108;2023-09-19T04:51:31;15.70;99.90
26063;DHT22;13837;48.562;12.108;2023-09-19T04:54:00;15.70;99.90
26063;DHT22;13837;48.562;12.108;2023-09-19T04:56:26;15.80;99.90
26063;DHT22;13837;48.562;12.108;2023-09-19T04:58:54;15.80;99.90
26063;DHT22;13837;48.562;12.108;2023-09-19T05:01:19;15.80;99.90
26063;DHT22;13837;48.562;12.108;2023-09-19T05:03:48;15.80;99.90
26063;DHT22;13837;48.562;12.108;2023-09-19T05:06:21;15.90;99.90
26063;DHT22;13837;48.562;12.108;2023-09-19T05:08:50;15.90;99.90
26063;DHT22;13837;48.562;12.108;2023-09-19T05:11:18;16.00;99.90
26063;DHT22;13837;48.562;12.108;2023-09-19T05:13:44;15.90;99.90
26063;DHT22;13837;48.562;12.108;2023-09-19T05:16:10;15.90;99.90
26063;DHT22;13837;48.562;12.108;2023-09-19T05:18:36;16.00;99.90
26063;DHT22;13837;48.562;12.108;2023-09-19T05:21:02;16.00;99.90
26063;DHT22;13837;48.562;12.108;2023-09-19T05:23:28;16.00;99.90
26063;DHT22;13837;48.562;12.108;2023-09-19T05:25:54;16.00;99.90
26063;DHT22;13837;48.562;12.108;2023-09-19T05:28:22;16.00;99.90
26063;DHT22;13837;48.562;12.108;2023-09-19T05:30:47;16.10;99.90
26063;DHT22;13837;48.562;12.108;2023-09-19T05:33:14;16.10;99.90
26063;DHT22;13837;48.562;12.108;2023-09-19T05:35:40;16.10;99.90
26063;DHT22;13837;48.562;12.108;2023-09-19T05:38:07;16.10;99.90
26063;DHT22;13837;48.562;12.108;2023-09-19T05:40:38;16.20;99.90
26063;DHT22;13837;48.562;12.108;2023-09-19T05:43:06;16.20;99.90
26063;DHT22;13837;48.562;12.108;2023-09-19T05:45:32;16.20;99.90
26063;DHT22;13837;48.562;12.108;2023-09-19T05:48:16;16.20;99.90
26063;DHT22;13837;48.562;12.108;2023-09-19T05:50:42;16.20;99.90
26063;DHT22;13837;48.562;12.108;2023-09-19T06:04:05;16.30;99.90
26063;DHT22;13837;48.562;12.108;2023-09-19T06:06:32;16.30;99.90
26063;DHT22;13837;48.562;12.108;2023-09-19T06:08:59;16.40;99.90
26063;DHT22;13837;48.562;12.108;2023-09-19T06:11:25;16.40;99.90
26063;DHT22;13837;48.562;12.108;2023-09-19T06:13:54;16.40;99.90
26063;DHT22;13837;48.562;12.108;2023-09-19T06:16:22;16.40;99.90
26063;DHT22;13837;48.562;12.108;2023-09-19T06:19:00;16.50;99.90
26063;DHT22;13837;48.562;12.108;2023-09-19T06:21:29;16.50;99.90
26063;DHT22;13837;48.562;12.108;2023-09-19T06:24:05;16.50;99.90
26063;DHT22;13837;48.562;12.108;2023-09-19T06:26:34;16.60;99.90
26063;DHT22;13837;48.562;12.108;2023-09-19T06:29:04;16.60;99.90
26063;DHT22;13837;48.562;12.108;2023-09-19T06:31:33;16.60;99.90
26063;DHT22;13837;48.562;12.108;2023-09-19T06:34:02;16.60;99.90
26063;DHT22;13837;48.562;12.108;2023-09-19T06:36:29;16.70;99.90
26063;DHT22;13837;48.562;12.108;2023-09-19T06:38:55;16.60;99.90
26063;DHT22;13837;48.562;12.108;2023-09-19T06:41:21;16.70;99.90
26063;DHT22;13837;48.562;12.108;2023-09-19T06:43:50;16.70;99.90
26063;DHT22;13837;48.562;12.108;2023-09-19T06:46:19;16.80;99.90
26063;DHT22;13837;48.562;12.108;2023-09-19T06:48:45;16.80;99.90
26063;DHT22;13837;48.562;12.108;2023-09-19T06:51:13;16.90;99.90
26063;DHT22;13837;48.562;12.108;2023-09-19T06:53:41;16.80;99.90
26063;DHT22;13837;48.562;12.108;2023-09-19T06:56:07;16.80;99.90
26063;DHT22;13837;48.562;12.108;2023-09-19T06:58:32;16.80;99.90
26063;DHT22;13837;48.562;12.108;2023-09-19T07:00:58;16.80;99.90
26063;DHT22;13837;48.562;12.108;2023-09-19T07:03:24;16.90;99.90
26063;DHT22;13837;48.562;12.108;2023-09-19T07:05:52;17.10;99.90
26063;DHT22;13837;48.562;12.108;2023-09-19T07:08:18;17.20;99.90
26063;DHT22;13837;48.562;12.108;2023-09-19T07:10:45;17.30;99.90
26063;DHT22;13837;48.562;12.108;2023-09-19T07:13:14;17.30;99.90
26063;DHT22;13837;48.562;12.108;2023-09-19T07:15:43;17.40;99.90
26063;DHT22;13837;48.562;12.108;2023-09-19T07:18:13;17.50;99.90
26063;DHT22;13837;48.562;12.108;2023-09-19T07:20:40;17.60;99.90
26063;DHT22;13837;48.562;12.108;2023-09-19T07:23:11;17.70;99.90
26063;DHT22;13837;48.562;12.108;2023-09-19T07:25:39;17.80;99.90
26063;DHT22;13837;48.562;12.108;2023-09-19T07:28:05;17.90;99.90
26063;DHT22;13837;48.562;12.108;2023-09-19T07:30:31;17.90;99.90
26063;DHT22;13837;48.562;12.108;2023-09-19T07:32:57;17.90;99.90
26063;DHT22;13837;48.562;12.108;2023-09-19T07:35:23;17.80;99.90
26063;DHT22;13837;48.562;12.108;2023-09-19T07:37:49;17.90;99.90
26063;DHT22;13837;48.562;12.108;2023-09-19T07:40:17;18.00;99.90
26063;DHT22;13837;48.562;12.108;2023-09-19T07:42:43;18.20;99.90
26063;DHT22;13837;48.562;12.108;2023-09-19T07:45:10;18.20;99.90
26063;DHT22;13837;48.562;12.108;2023-09-19T07:47:50;18.20;99.90
26063;DHT22;13837;48.562;12.108;2023-09-19T07:50:17;18.20;99.90
26063;DHT22;13837;48.562;12.108;2023-09-19T07:52:45;18.40;99.90
26063;DHT22;13837;48.562;12.108;2023-09-19T07:55:11;18.50;99.90
26063;DHT22;13837;48.562;12.108;2023-09-19T07:57:41;18.70;99.90
26063;DHT22;13837;48.562;12.108;2023-09-19T08:00:08;18.60;99.90
26063;DHT22;13837;48.562;12.108;2023-09-19T08:02:41;18.50;99.90
26063;DHT22;13837;48.562;12.108;2023-09-19T08:05:08;18.60;99.90
26063;DHT22;13837;48.562;12.108;2023-09-19T08:07:38;18.60;99.90
26063;DHT22;13837;48.562;12.108;2023-09-19T08:10:05;18.50;99.90
26063;DHT22;13837;48.562;12.108;2023-09-19T08:12:39;18.50;99.90
26063;DHT22;13837;48.562;12.108;2023-09-19T08:15:15;18.50;99.90
26063;DHT22;13837;48.562;12.108;2023-09-19T08:17:45;18.50;99.90
26063;DHT22;13837;48.562;12.108;2023-09-19T08:20:14;18.40;99.90
26063;DHT22;13837;48.562;12.108;2023-09-19T08:22:49;18.50;99.90
26063;DHT22;13837;48.562;12.108;2023-09-19T08:25:16;18.60;99.90
26063;DHT22;13837;48.562;12.108;2023-09-19T08:27:45;18.60;99.90
26063;DHT22;13837;48.562;12.108;2023-09-19T08:30:16;18.70;99.90
26063;DHT22;13837;48.562;12.108;2023-09-19T08:32:44;18.60;99.90
26063;DHT22;13837;48.562;12.108;2023-09-19T08:35:13;18.60;99.90
26063;DHT22;13837;48.562;12.108;2023-09-19T08:37:48;18.60;99.90
26063;DHT22;13837;48.562;12.108;2023-09-19T08:40:17;18.60;99.90
26063;DHT22;13837;48.562;12.108;2023-09-19T08:42:50;18.60;99.90
26063;DHT22;13837;48.562;12.108;2023-09-19T08:45:17;18.80;99.90
26063;DHT22;13837;48.562;12.108;2023-09-19T08:50:38;18.90;99.90
26063;DHT22;13837;48.562;12.108;2023-09-19T08:53:11;18.90;99.90
26063;DHT22;13837;48.562;12.108;2023-09-19T08:55:41;18.80;99.90
26063;DHT22;13837;48.562;12.108;2023-09-19T08:58:10;18.90;99.90
26063;DHT22;13837;48.562;12.108;2023-09-19T09:00:39;19.00;99.90
26063;DHT22;13837;48.562;12.108;2023-09-19T09:03:09;19.00;99.90
26063;DHT22;13837;48.562;12.108;2023-09-19T09:05:41;18.90;99.90
26063;DHT22;13837;48.562;12.108;2023-09-19T09:08:12;18.90;99.90
26063;DHT22;13837;48.562;12.108;2023-09-19T09:10:41;19.00;99.90
26063;DHT22;13837;48.562;12.108;2023-09-19T09:13:10;19.20;99.90
26063;DHT22;13837;48.562;12.108;2023-09-19T09:15:41;19.50;99.90
26063;DHT22;13837;48.562;12.108;2023-09-19T09:18:07;20.00;99.90
26063;DHT22;13837;48.562;12.108;2023-09-19T09:20:33;20.20;99.90
26063;DHT22;13837;48.562;12.108;2023-09-19T09:22:59;20.60;99.90
26063;DHT22;13837;48.562;12.108;2023-09-19T09:25:52;20.80;99.90
26063;DHT22;13837;48.562;12.108;2023-09-19T09:28:26;20.50;99.90
26063;DHT22;13837;48.562;12.108;2023-09-19T09:30:54;20.30;99.90
26063;DHT22;13837;48.562;12.108;2023-09-19T09:33:22;20.20;99.90
26063;DHT22;13837;48.562;12.108;2023-09-19T09:35:57;20.40;99.90
26063;DHT22;13837;48.562;12.108;2023-09-19T09:38:30;20.60;99.90
26063;DHT22;13837;48.562;12.108;2023-09-19T09:41:15;20.80;99.90
26063;DHT22;13837;48.562;12.108;2023-09-19T09:43:53;20.90;99.90
26063;DHT22;13837;48.562;12.108;2023-09-19T09:46:22;21.20;99.90
26063;DHT22;13837;48.562;12.108;2023-09-19T09:48:59;21.10;99.90
26063;DHT22;13837;48.562;12.108;2023-09-19T09:51:59;21.00;99.90
26063;DHT22;13837;48.562;12.108;2023-09-19T09:55:01;20.90;99.90
26063;DHT22;13837;48.562;12.108;2023-09-19T09:57:31;20.60;99.90
26063;DHT22;13837;48.562;12.108;2023-09-19T09:59:59;20.30;99.90
26063;DHT22;13837;48.562;12.108;2023-09-19T10:02:41;20.30;99.90
26063;DHT22;13837;48.562;12.108;2023-09-19T10:05:17;20.20;99.90
26063;DHT22;13837;48.562;12.108;2023-09-19T10:08:09;20.10;99.90
26063;DHT22;13837;48.562;12.108;2023-09-19T10:10:40;19.90;99.90
26063;DHT22;13837;48.562;12.108;2023-09-19T10:13:31;19.70;99.90
26063;DHT22;13837;48.562;12.108;2023-09-19T10:16:24;19.30;99.90
26063;DHT22;13837;48.562;12.108;2023-09-19T10:18:54;18.90;99.90
26063;DHT22;13837;48.562;12.108;2023-09-19T10:21:24;18.60;99.90
26063;DHT22;13837;48.562;12.108;2023-09-19T10:23:51;18.30;99.90
26063;DHT22;13837;48.562;12.108;2023-09-19T10:26:22;18.10;99.90
26063;DHT22;13837;48.562;12.108;2023-09-19T10:28:50;18.20;99.90
26063;DHT22;13837;48.562;12.108;2023-09-19T10:31:21;18.20;99.90
26063;DHT22;13837;48.562;12.108;2023-09-19T10:33:49;18.00;99.90
26063;DHT22;13837;48.562;12.108;2023-09-19T10:36:16;17.90;99.90
26063;DHT22;13837;48.562;12.108;2023-09-19T10:38:50;17.70;99.90
26063;DHT22;13837;48.562;12.108;2023-09-19T10:41:22;17.40;99.90
26063;DHT22;13837;48.562;12.108;2023-09-19T10:43:48;17.40;99.90
26063;DHT22;13837;48.562;12.108;2023-09-19T10:46:16;17.40;99.90
26063;DHT22;13837;48.562;12.108;2023-09-19T10:48:42;17.50;99.90
26063;DHT22;13837;48.562;12.108;2023-09-19T10:51:23;17.50;99.90
26063;DHT22;13837;48.562;12.108;2023-09-19T10:53:57;17.50;99.90
26063;DHT22;13837;48.562;12.108;2023-09-19T10:56:36;17.30;99.90
26063;DHT22;13837;48.562;12.108;2023-09-19T10:59:19;17.40;99.90
26063;DHT22;13837;48.562;12.108;2023-09-19T11:01:56;17.40;99.90
26063;DHT22;13837;48.562;12.108;2023-09-19T11:04:29;17.40;99.90
26063;DHT22;13837;48.562;12.108;2023-09-19T11:09:50;17.20;99.90
26063;DHT22;13837;48.562;12.108;2023-09-19T11:14:55;16.80;99.90
26063;DHT22;13837;48.562;12.108;2023-09-19T11:30:41;16.40;99.90
26063;DHT22;13837;48.562;12.108;2023-09-19T11:33:29;16.40;99.90
26063;DHT22;13837;48.562;12.108;2023-09-19T11:36:16;16.50;99.90
26063;DHT22;13837;48.562;12.108;2023-09-19T11:43:51;16.60;99.90
26063;DHT22;13837;48.562;12.108;2023-09-19T11:46:20;16.60;99.90
26063;DHT22;13837;48.562;12.108;2023-09-19T11:48:50;16.70;99.90
26063;DHT22;13837;48.562;12.108;2023-09-19T11:51:20;16.80;99.90
26063;DHT22;13837;48.562;12.108;2023-09-19T11:53:51;16.90;99.90
26063;DHT22;13837;48.562;12.108;2023-09-19T11:56:21;17.10;99.90
26063;DHT22;13837;48.562;12.108;2023-09-19T11:58:50;17.60;99.90
26063;DHT22;13837;48.562;12.108;2023-09-19T12:01:24;18.00;99.90
26063;DHT22;13837;48.562;12.108;2023-09-19T12:03:55;18.00;99.90
26063;DHT22;13837;48.562;12.108;2023-09-19T12:06:26;18.10;99.90
26063;DHT22;13837;48.562;12.108;2023-09-19T12:08:53;18.10;99.90
26063;DHT22;13837;48.562;12.108;2023-09-19T12:11:23;18.10;99.90
26063;DHT22;13837;48.562;12.108;2023-09-19T12:13:51;18.20;99.90
26063;DHT22;13837;48.562;12.108;2023-09-19T12:16:20;18.50;99.90
26063;DHT22;13837;48.562;12.108;2023-09-19T12:18:50;18.50;99.90
26063;DHT22;13837;48.562;12.108;2023-09-19T12:21:29;18.80;99.90
26063;DHT22;13837;48.562;12.108;2023-09-19T12:24:22;19.00;99.90
26063;DHT22;13837;48.562;12.108;2023-09-19T12:26:48;19.20;99.90
26063;DHT22;13837;48.562;12.108;2023-09-19T12:29:47;19.60;99.90
26063;DHT22;13837;48.562;12.108;2023-09-19T12:32:36;19.80;99.90
26063;DHT22;13837;48.562;12.108;2023-09-19T12:35:06;20.00;99.90
26063;DHT22;13837;48.562;12.108;2023-09-19T12:37:45;20.30;99.90
26063;DHT22;13837;48.562;12.108;2023-09-19T12:40:21;20.60;99.90
26063;DHT22;13837;48.562;12.108;2023-09-19T12:42:54;21.00;99.90
26063;DHT22;13837;48.562;12.108;2023-09-19T12:45:31;21.20;99.90
26063;DHT22;13837;48.562;12.108;2023-09-19T12:51:05;21.00;99.90
26063;DHT22;13837;48.562;12.108;2023-09-19T12:56:08;21.00;99.90
26063;DHT22;13837;48.562;12.108;2023-09-19T13:01:20;21.20;99.90
26063;DHT22;13837;48.562;12.108;2023-09-19T13:04:17;21.50;99.90
26063;DHT22;13837;48.562;12.108;2023-09-19T13:06:52;21.20;99.90
26063;DHT22;13837;48.562;12.108;2023-09-19T13:09:22;21.10;99.90
26063;DHT22;13837;48.562;12.108;2023-09-19T13:11:50;20.90;99.90
26063;DHT22;13837;48.562;12.108;2023-09-19T13:14:23;20.80;99.90
26063;DHT22;13837;48.562;12.108;2023-09-19T13:19:41;20.50;99.90
26063;DHT22;13837;48.562;12.108;2023-09-19T13:22:43;20.40;99.90
26063;DHT22;13837;48.562;12.108;2023-09-19T13:25:20;20.30;99.90
26063;DHT22;13837;48.562;12.108;2023-09-19T13:27:54;20.40;99.90
26063;DHT22;13837;48.562;12.108;2023-09-19T13:30:28;20.30;99.90
26063;DHT22;13837;48.562;12.108;2023-09-19T13:33:09;20.20;99.90
26063;DHT22;13837;48.562;12.108;2023-09-19T13:35:35;20.70;99.90
26063;DHT22;13837;48.562;12.108;2023-09-19T13:38:04;20.70;99.90
26063;DHT22;13837;48.562;12.108;2023-09-19T13:40:30;20.70;99.90
26063;DHT22;13837;48.562;12.108;2023-09-19T13:42:56;20.80;99.90
26063;DHT22;13837;48.562;12.108;2023-09-19T13:45:22;20.90;99.90
26063;DHT22;13837;48.562;12.108;2023-09-19T13:47:50;21.00;99.90
26063;DHT22;13837;48.562;12.108;2023-09-19T13:50:16;21.00;99.90
26063;DHT22;13837;48.562;12.108;2023-09-19T13:52:49;21.20;99.90
26063;DHT22;13837;48.562;12.108;2023-09-19T13:55:17;21.30;99.90
26063;DHT22;13837;48.562;12.108;2023-09-19T13:57:49;21.50;99.90
26063;DHT22;13837;48.562;12.108;2023-09-19T14:00:24;21.50;99.90
26063;DHT22;13837;48.562;12.108;2023-09-19T14:02:50;21.50;99.90
26063;DHT22;13837;48.562;12.108;2023-09-19T14:05:16;21.40;99.90
26063;DHT22;13837;48.562;12.108;2023-09-19T14:07:42;21.30;99.90
26063;DHT22;13837;48.562;12.108;2023-09-19T14:10:09;21.30;99.90
26063;DHT22;13837;48.562;12.108;2023-09-19T14:12:39;21.30;99.90
26063;DHT22;13837;48.562;12.108;2023-09-19T14:15:09;21.50;99.90
26063;DHT22;13837;48.562;12.108;2023-09-19T14:17:37;21.70;99.90
26063;DHT22;13837;48.562;12.108;2023-09-19T14:20:03;21.70;99.90
26063;DHT22;13837;48.562;12.108;2023-09-19T14:22:29;21.80;99.90
26063;DHT22;13837;48.562;12.108;2023-09-19T14:24:56;21.60;99.90
26063;DHT22;13837;48.562;12.108;2023-09-19T14:27:22;21.70;99.90
26063;DHT22;13837;48.562;12.108;2023-09-19T14:29:47;21.50;99.90
26063;DHT22;13837;48.562;12.108;2023-09-19T14:32:13;21.60;99.90
26063;DHT22;13837;48.562;12.108;2023-09-19T14:34:39;21.70;99.90
26063;DHT22;13837;48.562;12.108;2023-09-19T14:37:11;21.70;99.90
26063;DHT22;13837;48.562;12.108;2023-09-19T14:39:37;21.70;99.90
26063;DHT22;13837;48.562;12.108;2023-09-19T14:42:05;21.70;99.90
26063;DHT22;13837;48.562;12.108;2023-09-19T14:44:31;21.90;99.90
26063;DHT22;13837;48.562;12.108;2023-09-19T14:46:57;22.20;99.90
26063;DHT22;13837;48.562;12.108;2023-09-19T14:49:24;22.20;99.90
26063;DHT22;13837;48.562;12.108;2023-09-19T14:51:50;21.90;99.90
26063;DHT22;13837;48.562;12.108;2023-09-19T14:54:17;21.80;99.90
26063;DHT22;13837;48.562;12.108;2023-09-19T14:56:44;22.10;99.90
26063;DHT22;13837;48.562;12.108;2023-09-19T14:59:10;22.10;99.90
26063;DHT22;13837;48.562;12.108;2023-09-19T15:01:36;21.90;99.90
26063;DHT22;13837;48.562;12.108;2023-09-19T15:04:04;22.10;99.90
26063;DHT22;13837;48.562;12.108;2023-09-19T15:06:30;22.20;99.90
26063;DHT22;13837;48.562;12.108;2023-09-19T15:08:56;22.00;99.90
26063;DHT22;13837;48.562;12.108;2023-09-19T15:11:22;22.10;99.90
26063;DHT22;13837;48.562;12.108;2023-09-19T15:13:51;22.10;99.90
26063;DHT22;13837;48.562;12.108;2023-09-19T15:16:17;22.20;99.90
26063;DHT22;13837;48.562;12.108;2023-09-19T15:18:45;22.40;99.90
26063;DHT22;13837;48.562;12.108;2023-09-19T15:21:13;22.60;99.90
26063;DHT22;13837;48.562;12.108;2023-09-19T15:23:40;22.70;99.90
26063;DHT22;13837;48.562;12.108;2023-09-19T15:26:09;22.50;99.90
26063;DHT22;13837;48.562;12.108;2023-09-19T15:28:35;22.10;99.90
26063;DHT22;13837;48.562;12.108;2023-09-19T15:31:02;22.00;99.90
26063;DHT22;13837;48.562;12.108;2023-09-19T15:33:29;21.90;99.90
26063;DHT22;13837;48.562;12.108;2023-09-19T15:36:15;21.90;99.90
26063;DHT22;13837;48.562;12.108;2023-09-19T15:39:01;21.90;99.90
26063;DHT22;13837;48.562;12.108;2023-09-19T15:43:53;21.80;99.90
26063;DHT22;13837;48.562;12.108;2023-09-19T15:46:20;21.60;99.90
26063;DHT22;13837;48.562;12.108;2023-09-19T15:48:46;21.60;99.90
26063;DHT22;13837;48.562;12.108;2023-09-19T15:51:12;21.50;99.90
26063;DHT22;13837;48.562;12.108;2023-09-19T15:53:50;21.70;99.90
26063;DHT22;13837;48.562;12.108;2023-09-19T15:56:17;21.70;99.90
26063;DHT22;13837;48.562;12.108;2023-09-19T15:58:47;21.70;99.90
26063;DHT22;13837;48.562;12.108;2023-09-19T16:01:14;21.80;99.90
26063;DHT22;13837;48.562;12.108;2023-09-19T16:03:43;21.80;99.90
26063;DHT22;13837;48.562;12.108;2023-09-19T16:06:14;21.90;99.90
26063;DHT22;13837;48.562;12.108;2023-09-19T16:08:41;21.70;99.90
26063;DHT22;13837;48.562;12.108;2023-09-19T16:11:07;21.70;99.90
26063;DHT22;13837;48.562;12.108;2023-09-19T16:13:35;21.60;99.90
26063;DHT22;13837;48.562;12.108;2023-09-19T16:16:02;21.60;99.90
26063;DHT22;13837;48.562;12.108;2023-09-19T16:18:29;21.60;99.90
26063;DHT22;13837;48.562;12.108;2023-09-19T16:21:04;21.40;99.90
26063;DHT22;13837;48.562;12.108;2023-09-19T16:23:30;21.30;99.90
26063;DHT22;13837;48.562;12.108;2023-09-19T16:26:07;21.30;99.90
26063;DHT22;13837;48.562;12.108;2023-09-19T16:28:36;21.30;99.90
26063;DHT22;13837;48.562;12.108;2023-09-19T16:31:06;21.30;99.90
26063;DHT22;13837;48.562;12.108;2023-09-19T16:33:36;21.20;99.90
26063;DHT22;13837;48.562;12.108;2023-09-19T16:36:09;21.00;99.90
26063;DHT22;13837;48.562;12.108;2023-09-19T16:38:35;21.00;99.90
26063;DHT22;13837;48.562;12.108;2023-09-19T16:41:02;20.90;99.90